46°F Temp
37°F Dewpoint
% Humidity
Temperature
9 MPH
14 KM/H
8 KTS
40°
North East

Wind Speed
Overcast
Conditions
Pressure 1013.52 (hPa) - 29.93 (in)
Visibility 10.0 (mi) - 16.1 (km)

Current Conditions
KEQY
Location 15.55km (9.66mi)
Metar :KEQY 180253Z AUTO 04008KT 10SM OVC065 08/03 A2993 RMK AO2 SLP151 T00780028 50000 $
Sun 17th November 22:53 pm

Airport
  Metar Aviation API Data Provided by https://www.checkwx.com/ CSS/SVG/PHP scripts by weather34.com © 2015-2019